sensor_id;sensor_type;location;lat;lon;timestamp;P1;durP1;ratioP1;P2;durP2;ratioP2
65764;SDS011;52915;53.718;19.946;2023-04-03T00:17:39;4.30;;;2.00;;
65764;SDS011;52915;53.718;19.946;2023-04-03T00:22:43;2.30;;;1.50;;
65764;SDS011;52915;53.718;19.946;2023-04-03T00:35:33;3.00;;;1.50;;
65764;SDS011;52915;53.718;19.946;2023-04-03T00:48:31;1.70;;;1.50;;
65764;SDS011;52915;53.718;19.946;2023-04-03T00:53:46;4.50;;;1.60;;
65764;SDS011;52915;53.718;19.946;2023-04-03T01:05:55;2.20;;;1.60;;
65764;SDS011;52915;53.718;19.946;2023-04-03T01:24:42;4.40;;;1.60;;
65764;SDS011;52915;53.718;19.946;2023-04-03T01:36:53;3.50;;;1.70;;
65764;SDS011;52915;53.718;19.946;2023-04-03T01:41:57;1.80;;;1.70;;
65764;SDS011;52915;53.718;19.946;2023-04-03T01:47:05;1.40;;;1.40;;
65764;SDS011;52915;53.718;19.946;2023-04-03T01:52:35;2.30;;;1.30;;
65764;SDS011;52915;53.718;19.946;2023-04-03T01:57:39;1.50;;;1.30;;
65764;SDS011;52915;53.718;19.946;2023-04-03T02:02:42;3.50;;;2.00;;
65764;SDS011;52915;53.718;19.946;2023-04-03T02:07:46;1.50;;;1.40;;
65764;SDS011;52915;53.718;19.946;2023-04-03T02:12:49;1.50;;;1.40;;
65764;SDS011;52915;53.718;19.946;2023-04-03T02:17:54;3.80;;;1.30;;
65764;SDS011;52915;53.718;19.946;2023-04-03T02:22:58;2.40;;;1.60;;
65764;SDS011;52915;53.718;19.946;2023-04-03T02:28:02;3.40;;;1.70;;
65764;SDS011;52915;53.718;19.946;2023-04-03T02:33:06;1.80;;;1.70;;
65764;SDS011;52915;53.718;19.946;2023-04-03T02:38:09;3.90;;;2.30;;
65764;SDS011;52915;53.718;19.946;2023-04-03T02:50:21;4.30;;;2.50;;
65764;SDS011;52915;53.718;19.946;2023-04-03T02:55:50;1.30;;;1.30;;
65764;SDS011;52915;53.718;19.946;2023-04-03T03:14:27;1.80;;;1.70;;
65764;SDS011;52915;53.718;19.946;2023-04-03T03:25:26;2.80;;;1.40;;
65764;SDS011;52915;53.718;19.946;2023-04-03T03:37:38;2.60;;;2.10;;
65764;SDS011;52915;53.718;19.946;2023-04-03T03:42:42;2.00;;;1.80;;
65764;SDS011;52915;53.718;19.946;2023-04-03T03:58:20;6.40;;;1.70;;
65764;SDS011;52915;53.718;19.946;2023-04-03T04:17:19;3.40;;;1.80;;
65764;SDS011;52915;53.718;19.946;2023-04-03T04:22:24;3.10;;;2.30;;
65764;SDS011;52915;53.718;19.946;2023-04-03T04:27:27;35.20;;;23.20;;
65764;SDS011;52915;53.718;19.946;2023-04-03T04:39:39;11.50;;;4.70;;
65764;SDS011;52915;53.718;19.946;2023-04-03T04:45:08;6.60;;;3.80;;
65764;SDS011;52915;53.718;19.946;2023-04-03T04:50:16;4.80;;;3.00;;
65764;SDS011;52915;53.718;19.946;2023-04-03T05:29:54;4.70;;;3.40;;
65764;SDS011;52915;53.718;19.946;2023-04-03T05:47:12;3.50;;;2.20;;
65764;SDS011;52915;53.718;19.946;2023-04-03T05:59:44;3.20;;;1.60;;
65764;SDS011;52915;53.718;19.946;2023-04-03T06:04:50;8.70;;;2.90;;
65764;SDS011;52915;53.718;19.946;2023-04-03T06:34:55;4.70;;;2.20;;
65764;SDS011;52915;53.718;19.946;2023-04-03T06:52:47;5.00;;;2.60;;
65764;SDS011;52915;53.718;19.946;2023-04-03T06:58:16;8.30;;;2.50;;
65764;SDS011;52915;53.718;19.946;2023-04-03T07:03:39;15.40;;;6.70;;
65764;SDS011;52915;53.718;19.946;2023-04-03T07:21:03;7.00;;;1.50;;
65764;SDS011;52915;53.718;19.946;2023-04-03T07:26:22;13.60;;;3.50;;
65764;SDS011;52915;53.718;19.946;2023-04-03T07:59:39;1.50;;;1.40;;
65764;SDS011;52915;53.718;19.946;2023-04-03T08:04:44;1.30;;;1.30;;
65764;SDS011;52915;53.718;19.946;2023-04-03T08:09:48;1.60;;;1.30;;
65764;SDS011;52915;53.718;19.946;2023-04-03T08:14:52;2.50;;;1.80;;
65764;SDS011;52915;53.718;19.946;2023-04-03T08:20:24;1.20;;;1.10;;
65764;SDS011;52915;53.718;19.946;2023-04-03T08:46:26;40.10;;;10.70;;
65764;SDS011;52915;53.718;19.946;2023-04-03T08:52:01;3.60;;;2.20;;
65764;SDS011;52915;53.718;19.946;2023-04-03T08:57:34;7.40;;;2.70;;
65764;SDS011;52915;53.718;19.946;2023-04-03T09:03:11;2.40;;;1.90;;
65764;SDS011;52915;53.718;19.946;2023-04-03T09:14:41;23.60;;;9.10;;
65764;SDS011;52915;53.718;19.946;2023-04-03T09:19:58;50.00;;;13.50;;
65764;SDS011;52915;53.718;19.946;2023-04-03T09:52:26;5.80;;;3.00;;
65764;SDS011;52915;53.718;19.946;2023-04-03T10:03:34;4.20;;;2.30;;
65764;SDS011;52915;53.718;19.946;2023-04-03T10:28:35;5.40;;;3.40;;
65764;SDS011;52915;53.718;19.946;2023-04-03T10:51:45;2.50;;;1.90;;
65764;SDS011;52915;53.718;19.946;2023-04-03T11:03:42;6.80;;;1.90;;
65764;SDS011;52915;53.718;19.946;2023-04-03T11:09:10;1.90;;;1.40;;
65764;SDS011;52915;53.718;19.946;2023-04-03T11:14:32;3.80;;;1.90;;
65764;SDS011;52915;53.718;19.946;2023-04-03T11:20:06;6.40;;;2.20;;
65764;SDS011;52915;53.718;19.946;2023-04-03T11:25:24;2.10;;;1.60;;
65764;SDS011;52915;53.718;19.946;2023-04-03T11:30:42;2.20;;;1.80;;
65764;SDS011;52915;53.718;19.946;2023-04-03T12:28:43;1.30;;;1.20;;
65764;SDS011;52915;53.718;19.946;2023-04-03T13:53:26;19.90;;;10.00;;
65764;SDS011;52915;53.718;19.946;2023-04-03T13:58:33;19.50;;;11.80;;
65764;SDS011;52915;53.718;19.946;2023-04-03T14:19:24;32.40;;;10.10;;
65764;SDS011;52915;53.718;19.946;2023-04-03T14:31:15;23.30;;;12.40;;
65764;SDS011;52915;53.718;19.946;2023-04-03T14:50:04;42.40;;;18.70;;
65764;SDS011;52915;53.718;19.946;2023-04-03T15:01:32;18.00;;;10.30;;
65764;SDS011;52915;53.718;19.946;2023-04-03T15:06:37;8.40;;;5.90;;
65764;SDS011;52915;53.718;19.946;2023-04-03T15:11:41;10.60;;;7.20;;
65764;SDS011;52915;53.718;19.946;2023-04-03T15:16:45;9.40;;;6.50;;
65764;SDS011;52915;53.718;19.946;2023-04-03T15:21:49;10.40;;;6.10;;
65764;SDS011;52915;53.718;19.946;2023-04-03T15:26:54;17.60;;;9.80;;
65764;SDS011;52915;53.718;19.946;2023-04-03T15:31:58;14.40;;;7.60;;
65764;SDS011;52915;53.718;19.946;2023-04-03T15:37:02;8.00;;;5.60;;
65764;SDS011;52915;53.718;19.946;2023-04-03T15:42:06;3.80;;;3.50;;
65764;SDS011;52915;53.718;19.946;2023-04-03T15:47:10;7.90;;;3.40;;
65764;SDS011;52915;53.718;19.946;2023-04-03T15:52:14;6.20;;;4.40;;
65764;SDS011;52915;53.718;19.946;2023-04-03T15:57:17;3.70;;;3.40;;
65764;SDS011;52915;53.718;19.946;2023-04-03T16:02:21;23.70;;;10.80;;
65764;SDS011;52915;53.718;19.946;2023-04-03T16:14:32;70.00;;;31.20;;
65764;SDS011;52915;53.718;19.946;2023-04-03T16:27:23;20.30;;;11.70;;
65764;SDS011;52915;53.718;19.946;2023-04-03T16:32:31;13.30;;;7.20;;
65764;SDS011;52915;53.718;19.946;2023-04-03T16:38:01;27.80;;;11.00;;
65764;SDS011;52915;53.718;19.946;2023-04-03T16:43:05;32.90;;;14.00;;
65764;SDS011;52915;53.718;19.946;2023-04-03T16:48:35;29.50;;;13.20;;
65764;SDS011;52915;53.718;19.946;2023-04-03T16:58:44;19.20;;;10.70;;
65764;SDS011;52915;53.718;19.946;2023-04-03T17:03:48;9.20;;;6.00;;
65764;SDS011;52915;53.718;19.946;2023-04-03T17:08:53;26.50;;;10.10;;
65764;SDS011;52915;53.718;19.946;2023-04-03T17:13:57;21.40;;;11.10;;
65764;SDS011;52915;53.718;19.946;2023-04-03T17:34:14;16.80;;;10.00;;
65764;SDS011;52915;53.718;19.946;2023-04-03T17:45:51;19.10;;;9.40;;
65764;SDS011;52915;53.718;19.946;2023-04-03T17:57:27;15.10;;;9.10;;
65764;SDS011;52915;53.718;19.946;2023-04-03T18:02:57;8.90;;;5.50;;
65764;SDS011;52915;53.718;19.946;2023-04-03T18:08:02;15.30;;;9.00;;
65764;SDS011;52915;53.718;19.946;2023-04-03T18:13:06;7.80;;;6.40;;
65764;SDS011;52915;53.718;19.946;2023-04-03T18:24:37;7.00;;;4.80;;
65764;SDS011;52915;53.718;19.946;2023-04-03T18:29:44;15.90;;;8.40;;
65764;SDS011;52915;53.718;19.946;2023-04-03T18:35:13;23.30;;;9.70;;
65764;SDS011;52915;53.718;19.946;2023-04-03T18:40:17;38.50;;;21.90;;
65764;SDS011;52915;53.718;19.946;2023-04-03T18:45:22;153.60;;;83.50;;
65764;SDS011;52915;53.718;19.946;2023-04-03T18:50:28;92.50;;;51.20;;
65764;SDS011;52915;53.718;19.946;2023-04-03T19:43:06;231.80;;;54.50;;
65764;SDS011;52915;53.718;19.946;2023-04-03T19:48:12;145.10;;;41.70;;
65764;SDS011;52915;53.718;19.946;2023-04-03T19:53:16;204.40;;;62.80;;
65764;SDS011;52915;53.718;19.946;2023-04-03T20:12:47;114.10;;;32.30;;
65764;SDS011;52915;53.718;19.946;2023-04-03T20:30:11;214.80;;;62.40;;
65764;SDS011;52915;53.718;19.946;2023-04-03T20:35:16;219.40;;;68.90;;
65764;SDS011;52915;53.718;19.946;2023-04-03T20:40:48;196.30;;;54.70;;
65764;SDS011;52915;53.718;19.946;2023-04-03T20:45:53;119.20;;;35.90;;
65764;SDS011;52915;53.718;19.946;2023-04-03T20:50:57;51.50;;;17.50;;
65764;SDS011;52915;53.718;19.946;2023-04-03T20:56:01;67.20;;;23.20;;
65764;SDS011;52915;53.718;19.946;2023-04-03T21:01:21;60.00;;;22.90;;
65764;SDS011;52915;53.718;19.946;2023-04-03T21:23:39;34.90;;;13.10;;
65764;SDS011;52915;53.718;19.946;2023-04-03T21:28:44;32.70;;;14.70;;
65764;SDS011;52915;53.718;19.946;2023-04-03T21:33:49;41.40;;;15.60;;
65764;SDS011;52915;53.718;19.946;2023-04-03T21:38:55;38.70;;;15.50;;
65764;SDS011;52915;53.718;19.946;2023-04-03T21:49:55;54.60;;;19.20;;
65764;SDS011;52915;53.718;19.946;2023-04-03T21:54:59;62.10;;;22.10;;
65764;SDS011;52915;53.718;19.946;2023-04-03T22:00:03;35.10;;;11.70;;
65764;SDS011;52915;53.718;19.946;2023-04-03T22:05:10;28.60;;;12.60;;
65764;SDS011;52915;53.718;19.946;2023-04-03T22:10:14;29.10;;;11.70;;
65764;SDS011;52915;53.718;19.946;2023-04-03T22:15:18;17.60;;;7.30;;
65764;SDS011;52915;53.718;19.946;2023-04-03T22:20:22;27.80;;;11.50;;
65764;SDS011;52915;53.718;19.946;2023-04-03T22:25:26;23.30;;;8.60;;
65764;SDS011;52915;53.718;19.946;2023-04-03T22:30:30;21.30;;;9.80;;
65764;SDS011;52915;53.718;19.946;2023-04-03T22:35:34;34.00;;;13.10;;
65764;SDS011;52915;53.718;19.946;2023-04-03T22:40:37;36.40;;;13.50;;
65764;SDS011;52915;53.718;19.946;2023-04-03T22:45:46;28.10;;;10.20;;
65764;SDS011;52915;53.718;19.946;2023-04-03T22:50:51;25.30;;;10.30;;
65764;SDS011;52915;53.718;19.946;2023-04-03T22:55:56;33.40;;;13.70;;
65764;SDS011;52915;53.718;19.946;2023-04-03T23:01:05;34.50;;;12.70;;
65764;SDS011;52915;53.718;19.946;2023-04-03T23:06:10;24.90;;;10.40;;
65764;SDS011;52915;53.718;19.946;2023-04-03T23:11:15;16.70;;;7.10;;
65764;SDS011;52915;53.718;19.946;2023-04-03T23:16:19;6.70;;;4.00;;
65764;SDS011;52915;53.718;19.946;2023-04-03T23:21:22;7.80;;;4.20;;
65764;SDS011;52915;53.718;19.946;2023-04-03T23:26:26;7.30;;;5.00;;
65764;SDS011;52915;53.718;19.946;2023-04-03T23:31:29;6.70;;;4.40;;
65764;SDS011;52915;53.718;19.946;2023-04-03T23:36:33;7.10;;;4.20;;
65764;SDS011;52915;53.718;19.946;2023-04-03T23:41:37;6.30;;;3.60;;
65764;SDS011;52915;53.718;19.946;2023-04-03T23:46:42;6.90;;;3.20;;
65764;SDS011;52915;53.718;19.946;2023-04-03T23:51:45;7.60;;;4.30;;
65764;SDS011;52915;53.718;19.946;2023-04-03T23:56:49;15.20;;;4.60;;
